Language selection

Features

My Weather Profile Weather Topics  | 

Bowie - northern half: Past 24 Hour Conditions

 

East Dellwood - 46207

09:00 PM PST 11 November 2019Buoy position: 50.88N 129.93W
Disclaimer

This table is a summary of hourly weather conditions for the past 24 hours.
Please note that these observations might not always be representative of weather conditions over their associated marine area.

Date / Time
(PST)
Wind(knots) Wave height(m) Wave period(s) Pressure(kPa) Air tempC) Water tempC)
11 November 2019
21:00 SSE 13 gust 16 3.0 8.0 101.3 12 11
20:00 S 13 gust 16 3.2 9.0 101.4 12 11
19:00 SSE 16 gust 17 3.5 8.0 101.4 12 11
18:00 SSE 13 gust 16 3.6 9.0 101.4 12 11
17:00 SSE 16 gust 17 3.6 9.0 101.4 12 11
16:00 SSE 16 gust 19 3.7 9.0 101.4 12 11
15:00 SSE 19 gust 23 4.2 9.0 101.4 12 11
14:00 SSE 22 gust 25 4.4 9.0 101.4 12 11
13:00 SE 23 gust 33 4.4 9.0 101.4 12 11
12:00 SSE 27 gust 35 4.2 8.0 101.4 12 11
11:00 SE 27 gust 35 4.2 8.0 101.4 11 11
10:00 SE 29 gust 35 4.6 8.0 101.4 11 11
9:00 SE 31 gust 39 4.6 9.0 101.4 11 11
8:00 SE 33 gust 39 4.5 8.0 101.4 11 11
7:00 SE 31 gust 41 4.0 8.0 101.5 11 11
6:00 SE 31 gust 39 3.7 8.0 101.5 12 11
5:00 SE 29 gust 35 3.4 8.0 101.6 12 11
4:00 SE 29 gust 35 3.6 7.0 101.7 12 11
3:00 SE 27 gust 33 3.2 7.0 101.8 11 11
2:00 SE 27 gust 33 3.1 7.0 101.8 11 11
1:00 ESE 27 gust 33 2.9 6.0 101.9 11 11
0:00 ESE 25 gust 29 2.5 6.0 102.0 11 11
10 November 2019
23:00 SE 23 gust 27 2.3 5.0 102.1 11 11
22:00 SE 23 gust 29 1.8 5.0 102.1 12 11
21:00 SE 22 gust 27 1.8 12.0 102.2 11 11

Zoom-in to make a selection

Map of Pacific - North Coast marine weather areas Middle Nomad - 46004 South Nomad - 46036 Dixon Entrance Central - 46145 South Moresby - 46147 Nanakwa Shoal - 46181 North Hecate Strait - 46183 North Nomad - 46184 South Hecate Strait - 46185 West Sea Otter - 46204 West Dixon Entrance - 46205 East Dellwood - 46207 West Moresby - 46208 Sartine Island Cape St.James Kindakun Rocks Langara Island Masset Municipal Airport Rose Spit Sandspit Airport Bella Bella Airport Bella Coola Airport Bonilla Island Cathedral Point Cumshewa Island Grey Islet Holland Rock Lucy Islands Lightstation Prince Rupert Airport
Legend:
buoy Buoy
land station Land Station

Pacific - North Coast Area

Another Region

What we are doing

Date modified: